Estación Meteorológica Peña el Pijo (Robertgarden) [ 04/19/21 04:36:37 CEST ]

Fecha Hora Presion(HPa) Temp (°C) Humedad % Rocio (°C) Viento ( m/s) Direccion Lluvia 1Hora(mm) Lluvia 24H(mm) LLuvia Total(mm)
2021-Apr-02 01:09:39 1007.100 8.6 77 4.8 - N     89.61
2021-Apr-02 02:10:01 1007.100 10.5 73 5.9 - N     89.61
2021-Apr-02 03:10:17 1006.900 8.4 77 4.6 - N     89.61
2021-Apr-02 04:11:56 1006.500 7.9 80 4.7 - N     89.61
2021-Apr-02 05:10:13 1006.300 7.2 82 4.3 - N     89.61
2021-Apr-02 06:10:25 1006.200 6.3 84 3.8 - N     89.61
2021-Apr-02 07:09:25 1005.900 7.1 84 4.6 - N     89.61
2021-Apr-02 08:09:20 1006.000 7.9 83 5.2 - N     89.61
2021-Apr-02 09:09:42 1006.300 9.3 82 6.3 - N     89.61
2021-Apr-02 10:09:07 1006.200 12.2 76 8.1 - N     89.61
2021-Apr-02 11:09:31 1006.300 14.3 61 6.9 - N     89.61
2021-Apr-02 12:09:50 1006.600 16.2 57 7.7 - N     89.61
2021-Apr-02 13:09:22 1006.700 15.3 56 6.5 - N     89.61
2021-Apr-02 14:09:57 1006.400 16.4 49 5.6 - N     89.61
2021-Apr-02 15:09:56 1005.900 17.1 44 4.7 - N     89.61
2021-Apr-02 16:09:34 1005.000 20.3 36 4.6 - N     89.61
2021-Apr-02 17:09:11 1004.600 20.9 32 3.5 - N     89.61
2021-Apr-02 18:09:20 1004.300 19.5 33 3.1 - N     89.61
2021-Apr-02 19:10:09 1004.400 16.9 39 2.8 - N     89.61
2021-Apr-02 20:09:47 1004.900 14.4 48 3.5 - N     89.61
2021-Apr-02 21:09:56 1005.100 12.1 55 3.3 - N     89.61
2021-Apr-02 22:09:43 1005.700 9.8 63 3.1 - N     89.61
2021-Apr-02 23:09:05 1005.800 9.8 67 3.9 - N     89.61

Temperatura Máxima:20°    Temperatura Mínima:
Presión Máxima:1007.100 Hpa    Presión Mínima:1004.300 Hpa


Volver